sensor_id;sensor_type;location;lat;lon;timestamp;P1;durP1;ratioP1;P2;durP2;ratioP2
71570;SDS011;59407;42.682;23.322;2022-12-26T00:01:35;30.95;;;17.60;;
71570;SDS011;59407;42.682;23.322;2022-12-26T00:04:02;35.55;;;18.98;;
71570;SDS011;59407;42.682;23.322;2022-12-26T00:06:28;31.37;;;17.37;;
71570;SDS011;59407;42.682;23.322;2022-12-26T00:08:55;32.80;;;19.17;;
71570;SDS011;59407;42.682;23.322;2022-12-26T00:11:20;35.60;;;19.07;;
71570;SDS011;59407;42.682;23.322;2022-12-26T00:13:47;37.85;;;20.27;;
71570;SDS011;59407;42.682;23.322;2022-12-26T00:16:17;35.08;;;18.70;;
71570;SDS011;59407;42.682;23.322;2022-12-26T00:18:44;31.50;;;18.10;;
71570;SDS011;59407;42.682;23.322;2022-12-26T00:21:10;31.40;;;16.47;;
71570;SDS011;59407;42.682;23.322;2022-12-26T00:23:37;39.90;;;19.30;;
71570;SDS011;59407;42.682;23.322;2022-12-26T00:26:13;33.72;;;18.15;;
71570;SDS011;59407;42.682;23.322;2022-12-26T00:28:40;30.00;;;16.73;;
71570;SDS011;59407;42.682;23.322;2022-12-26T00:31:06;33.95;;;18.08;;
71570;SDS011;59407;42.682;23.322;2022-12-26T00:33:34;36.00;;;19.60;;
71570;SDS011;59407;42.682;23.322;2022-12-26T00:36:04;35.10;;;17.92;;
71570;SDS011;59407;42.682;23.322;2022-12-26T00:38:34;34.63;;;17.53;;
71570;SDS011;59407;42.682;23.322;2022-12-26T00:41:00;34.08;;;17.63;;
71570;SDS011;59407;42.682;23.322;2022-12-26T00:43:26;30.65;;;17.08;;
71570;SDS011;59407;42.682;23.322;2022-12-26T00:45:51;35.53;;;18.30;;
71570;SDS011;59407;42.682;23.322;2022-12-26T00:48:17;35.47;;;18.23;;
71570;SDS011;59407;42.682;23.322;2022-12-26T00:50:42;35.93;;;17.87;;
71570;SDS011;59407;42.682;23.322;2022-12-26T00:53:09;34.13;;;17.60;;
71570;SDS011;59407;42.682;23.322;2022-12-26T00:55:34;30.63;;;18.03;;
71570;SDS011;59407;42.682;23.322;2022-12-26T00:58:00;34.10;;;17.55;;
71570;SDS011;59407;42.682;23.322;2022-12-26T01:00:25;32.17;;;17.40;;
71570;SDS011;59407;42.682;23.322;2022-12-26T01:02:51;32.63;;;18.40;;
71570;SDS011;59407;42.682;23.322;2022-12-26T01:05:18;31.30;;;17.13;;
71570;SDS011;59407;42.682;23.322;2022-12-26T01:07:43;34.25;;;17.92;;
71570;SDS011;59407;42.682;23.322;2022-12-26T01:10:10;34.00;;;18.97;;
71570;SDS011;59407;42.682;23.322;2022-12-26T01:12:36;35.92;;;17.50;;
71570;SDS011;59407;42.682;23.322;2022-12-26T01:15:02;37.43;;;20.57;;
71570;SDS011;59407;42.682;23.322;2022-12-26T01:17:27;35.63;;;20.33;;
71570;SDS011;59407;42.682;23.322;2022-12-26T01:19:53;33.40;;;18.63;;
71570;SDS011;59407;42.682;23.322;2022-12-26T01:22:20;40.30;;;21.67;;
71570;SDS011;59407;42.682;23.322;2022-12-26T01:24:45;48.40;;;23.55;;
71570;SDS011;59407;42.682;23.322;2022-12-26T01:27:11;46.33;;;23.43;;
71570;SDS011;59407;42.682;23.322;2022-12-26T01:29:37;44.50;;;23.23;;
71570;SDS011;59407;42.682;23.322;2022-12-26T01:32:03;45.83;;;23.77;;
71570;SDS011;59407;42.682;23.322;2022-12-26T01:34:28;41.90;;;22.27;;
71570;SDS011;59407;42.682;23.322;2022-12-26T01:36:54;44.73;;;23.40;;
71570;SDS011;59407;42.682;23.322;2022-12-26T01:39:20;39.67;;;20.80;;
71570;SDS011;59407;42.682;23.322;2022-12-26T01:41:46;39.92;;;22.60;;
71570;SDS011;59407;42.682;23.322;2022-12-26T01:47:14;43.38;;;23.48;;
71570;SDS011;59407;42.682;23.322;2022-12-26T01:49:42;39.88;;;21.40;;
71570;SDS011;59407;42.682;23.322;2022-12-26T01:52:10;35.75;;;19.90;;
71570;SDS011;59407;42.682;23.322;2022-12-26T01:54:38;39.30;;;19.40;;
71570;SDS011;59407;42.682;23.322;2022-12-26T01:57:17;35.10;;;18.52;;
71570;SDS011;59407;42.682;23.322;2022-12-26T01:59:45;39.53;;;20.08;;
71570;SDS011;59407;42.682;23.322;2022-12-26T02:02:12;41.63;;;22.33;;
71570;SDS011;59407;42.682;23.322;2022-12-26T02:04:38;42.70;;;23.35;;
71570;SDS011;59407;42.682;23.322;2022-12-26T02:07:25;37.57;;;21.73;;
71570;SDS011;59407;42.682;23.322;2022-12-26T02:09:52;41.85;;;21.58;;
71570;SDS011;59407;42.682;23.322;2022-12-26T02:12:19;43.97;;;22.85;;
71570;SDS011;59407;42.682;23.322;2022-12-26T02:14:46;47.88;;;23.92;;
71570;SDS011;59407;42.682;23.322;2022-12-26T02:17:12;39.77;;;22.03;;
71570;SDS011;59407;42.682;23.322;2022-12-26T02:19:54;44.13;;;21.88;;
71570;SDS011;59407;42.682;23.322;2022-12-26T02:25:03;44.40;;;21.67;;
71570;SDS011;59407;42.682;23.322;2022-12-26T02:30:30;42.88;;;21.70;;
71570;SDS011;59407;42.682;23.322;2022-12-26T02:39:28;39.63;;;22.20;;
71570;SDS011;59407;42.682;23.322;2022-12-26T02:45:02;42.42;;;22.55;;
71570;SDS011;59407;42.682;23.322;2022-12-26T02:48:02;38.63;;;21.75;;
71570;SDS011;59407;42.682;23.322;2022-12-26T02:56:37;38.70;;;22.13;;
71570;SDS011;59407;42.682;23.322;2022-12-26T02:59:38;42.17;;;23.38;;
71570;SDS011;59407;42.682;23.322;2022-12-26T03:02:31;50.85;;;23.50;;
71570;SDS011;59407;42.682;23.322;2022-12-26T03:05:32;46.03;;;24.73;;
71570;SDS011;59407;42.682;23.322;2022-12-26T03:08:34;44.33;;;25.07;;
71570;SDS011;59407;42.682;23.322;2022-12-26T03:11:20;48.72;;;26.38;;
71570;SDS011;59407;42.682;23.322;2022-12-26T03:14:18;52.90;;;25.27;;
71570;SDS011;59407;42.682;23.322;2022-12-26T03:16:47;47.33;;;23.65;;
71570;SDS011;59407;42.682;23.322;2022-12-26T03:19:33;44.40;;;25.92;;
71570;SDS011;59407;42.682;23.322;2022-12-26T03:22:00;51.50;;;25.03;;
71570;SDS011;59407;42.682;23.322;2022-12-26T03:24:46;43.22;;;22.80;;
71570;SDS011;59407;42.682;23.322;2022-12-26T03:27:30;44.72;;;22.70;;
71570;SDS011;59407;42.682;23.322;2022-12-26T03:29:57;41.88;;;22.67;;
71570;SDS011;59407;42.682;23.322;2022-12-26T03:32:42;41.42;;;21.85;;
71570;SDS011;59407;42.682;23.322;2022-12-26T03:35:11;47.27;;;24.70;;
71570;SDS011;59407;42.682;23.322;2022-12-26T03:37:44;41.58;;;22.23;;
71570;SDS011;59407;42.682;23.322;2022-12-26T03:43:09;45.78;;;22.58;;
71570;SDS011;59407;42.682;23.322;2022-12-26T03:58:12;39.70;;;20.35;;
71570;SDS011;59407;42.682;23.322;2022-12-26T04:01:00;38.85;;;21.30;;
71570;SDS011;59407;42.682;23.322;2022-12-26T04:03:47;42.47;;;21.45;;
71570;SDS011;59407;42.682;23.322;2022-12-26T04:06:33;42.95;;;22.00;;
71570;SDS011;59407;42.682;23.322;2022-12-26T04:09:30;40.65;;;21.50;;
71570;SDS011;59407;42.682;23.322;2022-12-26T04:12:26;39.85;;;22.35;;
71570;SDS011;59407;42.682;23.322;2022-12-26T04:15:13;36.83;;;21.83;;
71570;SDS011;59407;42.682;23.322;2022-12-26T04:18:04;45.03;;;21.83;;
71570;SDS011;59407;42.682;23.322;2022-12-26T04:23:57;42.67;;;22.50;;
71570;SDS011;59407;42.682;23.322;2022-12-26T04:26:45;40.55;;;22.35;;
71570;SDS011;59407;42.682;23.322;2022-12-26T04:29:31;40.10;;;22.55;;
71570;SDS011;59407;42.682;23.322;2022-12-26T04:37:51;43.05;;;23.58;;
71570;SDS011;59407;42.682;23.322;2022-12-26T04:40:37;46.00;;;23.38;;
71570;SDS011;59407;42.682;23.322;2022-12-26T04:43:23;43.75;;;23.55;;
71570;SDS011;59407;42.682;23.322;2022-12-26T04:46:08;40.78;;;22.60;;
71570;SDS011;59407;42.682;23.322;2022-12-26T04:48:33;42.05;;;22.48;;
71570;SDS011;59407;42.682;23.322;2022-12-26T04:51:25;41.03;;;22.27;;
71570;SDS011;59407;42.682;23.322;2022-12-26T04:53:50;38.47;;;22.17;;
71570;SDS011;59407;42.682;23.322;2022-12-26T04:56:15;38.93;;;21.80;;
71570;SDS011;59407;42.682;23.322;2022-12-26T04:58:42;46.00;;;22.80;;
71570;SDS011;59407;42.682;23.322;2022-12-26T05:01:08;45.08;;;24.67;;
71570;SDS011;59407;42.682;23.322;2022-12-26T05:03:52;42.13;;;22.17;;
71570;SDS011;59407;42.682;23.322;2022-12-26T05:06:36;41.75;;;22.58;;
71570;SDS011;59407;42.682;23.322;2022-12-26T05:09:20;44.03;;;22.92;;
71570;SDS011;59407;42.682;23.322;2022-12-26T05:11:58;44.40;;;23.13;;
71570;SDS011;59407;42.682;23.322;2022-12-26T05:14:24;44.67;;;22.15;;
71570;SDS011;59407;42.682;23.322;2022-12-26T05:16:49;41.30;;;21.97;;
71570;SDS011;59407;42.682;23.322;2022-12-26T05:19:33;42.67;;;24.17;;
71570;SDS011;59407;42.682;23.322;2022-12-26T05:22:17;45.93;;;23.53;;
71570;SDS011;59407;42.682;23.322;2022-12-26T05:25:01;39.58;;;23.05;;
71570;SDS011;59407;42.682;23.322;2022-12-26T05:27:45;41.38;;;21.75;;
71570;SDS011;59407;42.682;23.322;2022-12-26T05:30:29;39.42;;;22.33;;
71570;SDS011;59407;42.682;23.322;2022-12-26T05:32:55;41.23;;;22.30;;
71570;SDS011;59407;42.682;23.322;2022-12-26T05:35:39;42.10;;;22.10;;
71570;SDS011;59407;42.682;23.322;2022-12-26T05:38:05;39.17;;;23.43;;
71570;SDS011;59407;42.682;23.322;2022-12-26T05:40:30;41.42;;;23.50;;
71570;SDS011;59407;42.682;23.322;2022-12-26T05:42:57;43.57;;;22.10;;
71570;SDS011;59407;42.682;23.322;2022-12-26T05:45:24;43.95;;;23.55;;
71570;SDS011;59407;42.682;23.322;2022-12-26T05:47:49;45.10;;;22.50;;
71570;SDS011;59407;42.682;23.322;2022-12-26T05:50:15;42.90;;;23.53;;
71570;SDS011;59407;42.682;23.322;2022-12-26T05:52:40;42.83;;;22.38;;
71570;SDS011;59407;42.682;23.322;2022-12-26T05:55:06;42.87;;;21.57;;
71570;SDS011;59407;42.682;23.322;2022-12-26T05:57:32;41.03;;;23.80;;
71570;SDS011;59407;42.682;23.322;2022-12-26T05:59:57;42.72;;;22.98;;
71570;SDS011;59407;42.682;23.322;2022-12-26T06:02:24;51.10;;;24.57;;
71570;SDS011;59407;42.682;23.322;2022-12-26T06:04:49;48.80;;;24.02;;
71570;SDS011;59407;42.682;23.322;2022-12-26T06:07:14;47.77;;;25.63;;
71570;SDS011;59407;42.682;23.322;2022-12-26T06:09:40;46.70;;;24.83;;
71570;SDS011;59407;42.682;23.322;2022-12-26T06:12:06;47.15;;;25.48;;
71570;SDS011;59407;42.682;23.322;2022-12-26T06:14:31;42.42;;;24.27;;
71570;SDS011;59407;42.682;23.322;2022-12-26T06:16:56;47.70;;;25.40;;
71570;SDS011;59407;42.682;23.322;2022-12-26T06:19:22;43.67;;;23.83;;
71570;SDS011;59407;42.682;23.322;2022-12-26T06:21:48;43.67;;;23.50;;
71570;SDS011;59407;42.682;23.322;2022-12-26T06:24:13;41.57;;;22.47;;
71570;SDS011;59407;42.682;23.322;2022-12-26T06:26:39;53.40;;;26.37;;
71570;SDS011;59407;42.682;23.322;2022-12-26T06:29:06;43.75;;;23.58;;
71570;SDS011;59407;42.682;23.322;2022-12-26T06:31:31;48.90;;;24.70;;
71570;SDS011;59407;42.682;23.322;2022-12-26T06:33:56;45.63;;;24.57;;
71570;SDS011;59407;42.682;23.322;2022-12-26T06:36:23;43.10;;;23.80;;
71570;SDS011;59407;42.682;23.322;2022-12-26T06:38:50;43.10;;;23.70;;
71570;SDS011;59407;42.682;23.322;2022-12-26T06:41:17;44.65;;;22.83;;
71570;SDS011;59407;42.682;23.322;2022-12-26T06:43:43;44.80;;;24.35;;
71570;SDS011;59407;42.682;23.322;2022-12-26T06:46:10;41.30;;;24.30;;
71570;SDS011;59407;42.682;23.322;2022-12-26T06:48:37;49.33;;;24.55;;
71570;SDS011;59407;42.682;23.322;2022-12-26T06:51:06;46.00;;;25.20;;
71570;SDS011;59407;42.682;23.322;2022-12-26T06:53:34;40.60;;;23.17;;
71570;SDS011;59407;42.682;23.322;2022-12-26T06:56:10;47.07;;;26.30;;
71570;SDS011;59407;42.682;23.322;2022-12-26T06:58:36;42.03;;;24.63;;
71570;SDS011;59407;42.682;23.322;2022-12-26T07:01:06;44.08;;;25.73;;
71570;SDS011;59407;42.682;23.322;2022-12-26T07:03:33;46.17;;;23.52;;
71570;SDS011;59407;42.682;23.322;2022-12-26T07:06:09;42.20;;;23.30;;
71570;SDS011;59407;42.682;23.322;2022-12-26T07:08:37;50.75;;;25.45;;
71570;SDS011;59407;42.682;23.322;2022-12-26T07:11:02;41.03;;;22.00;;
71570;SDS011;59407;42.682;23.322;2022-12-26T07:13:28;45.38;;;23.92;;
71570;SDS011;59407;42.682;23.322;2022-12-26T07:15:55;46.20;;;23.43;;
71570;SDS011;59407;42.682;23.322;2022-12-26T07:18:23;47.72;;;24.35;;
71570;SDS011;59407;42.682;23.322;2022-12-26T07:20:48;45.43;;;23.77;;
71570;SDS011;59407;42.682;23.322;2022-12-26T07:23:13;41.53;;;23.50;;
71570;SDS011;59407;42.682;23.322;2022-12-26T07:25:39;46.37;;;23.77;;
71570;SDS011;59407;42.682;23.322;2022-12-26T07:28:04;41.77;;;24.60;;
71570;SDS011;59407;42.682;23.322;2022-12-26T07:30:30;41.90;;;22.33;;
71570;SDS011;59407;42.682;23.322;2022-12-26T07:32:56;43.85;;;24.25;;
71570;SDS011;59407;42.682;23.322;2022-12-26T07:35:21;47.07;;;23.30;;
71570;SDS011;59407;42.682;23.322;2022-12-26T07:37:46;45.20;;;24.13;;
71570;SDS011;59407;42.682;23.322;2022-12-26T07:40:12;38.05;;;22.30;;
71570;SDS011;59407;42.682;23.322;2022-12-26T07:42:37;39.00;;;22.03;;
71570;SDS011;59407;42.682;23.322;2022-12-26T07:45:03;37.08;;;20.70;;
71570;SDS011;59407;42.682;23.322;2022-12-26T07:47:29;36.53;;;20.23;;
71570;SDS011;59407;42.682;23.322;2022-12-26T07:49:54;34.40;;;21.53;;
71570;SDS011;59407;42.682;23.322;2022-12-26T07:52:20;36.83;;;21.25;;
71570;SDS011;59407;42.682;23.322;2022-12-26T07:54:45;35.30;;;20.57;;
71570;SDS011;59407;42.682;23.322;2022-12-26T07:57:11;41.83;;;23.30;;
71570;SDS011;59407;42.682;23.322;2022-12-26T07:59:36;40.57;;;22.57;;
71570;SDS011;59407;42.682;23.322;2022-12-26T08:02:01;40.13;;;22.63;;
71570;SDS011;59407;42.682;23.322;2022-12-26T08:04:29;37.23;;;23.43;;
71570;SDS011;59407;42.682;23.322;2022-12-26T08:06:57;43.38;;;24.52;;
71570;SDS011;59407;42.682;23.322;2022-12-26T08:09:23;40.67;;;24.85;;
71570;SDS011;59407;42.682;23.322;2022-12-26T08:11:49;41.17;;;24.07;;
71570;SDS011;59407;42.682;23.322;2022-12-26T08:14:14;37.93;;;21.70;;
71570;SDS011;59407;42.682;23.322;2022-12-26T08:16:43;37.28;;;21.85;;
71570;SDS011;59407;42.682;23.322;2022-12-26T08:19:09;35.55;;;21.13;;
71570;SDS011;59407;42.682;23.322;2022-12-26T08:21:35;34.38;;;19.30;;
71570;SDS011;59407;42.682;23.322;2022-12-26T08:24:00;33.03;;;19.67;;
71570;SDS011;59407;42.682;23.322;2022-12-26T08:26:26;30.70;;;18.97;;
71570;SDS011;59407;42.682;23.322;2022-12-26T08:28:53;31.83;;;18.73;;
71570;SDS011;59407;42.682;23.322;2022-12-26T08:31:19;34.83;;;19.15;;
71570;SDS011;59407;42.682;23.322;2022-12-26T08:33:46;37.17;;;22.23;;
71570;SDS011;59407;42.682;23.322;2022-12-26T08:36:12;43.03;;;23.67;;
71570;SDS011;59407;42.682;23.322;2022-12-26T08:38:40;38.90;;;21.63;;
71570;SDS011;59407;42.682;23.322;2022-12-26T08:41:06;35.60;;;21.97;;
71570;SDS011;59407;42.682;23.322;2022-12-26T08:43:32;34.60;;;20.10;;
71570;SDS011;59407;42.682;23.322;2022-12-26T08:45:59;48.63;;;29.27;;
71570;SDS011;59407;42.682;23.322;2022-12-26T08:48:29;54.72;;;32.35;;
71570;SDS011;59407;42.682;23.322;2022-12-26T08:50:58;53.67;;;33.37;;
71570;SDS011;59407;42.682;23.322;2022-12-26T08:53:48;59.72;;;32.33;;
71570;SDS011;59407;42.682;23.322;2022-12-26T08:56:15;62.00;;;33.95;;
71570;SDS011;59407;42.682;23.322;2022-12-26T08:58:45;65.90;;;36.63;;
71570;SDS011;59407;42.682;23.322;2022-12-26T09:01:14;61.42;;;36.78;;
71570;SDS011;59407;42.682;23.322;2022-12-26T09:03:42;66.33;;;38.93;;
71570;SDS011;59407;42.682;23.322;2022-12-26T09:06:08;64.40;;;37.08;;
71570;SDS011;59407;42.682;23.322;2022-12-26T09:08:35;61.03;;;35.08;;
71570;SDS011;59407;42.682;23.322;2022-12-26T09:13:50;64.53;;;38.33;;
71570;SDS011;59407;42.682;23.322;2022-12-26T09:16:20;56.70;;;32.77;;
71570;SDS011;59407;42.682;23.322;2022-12-26T09:18:47;61.40;;;35.65;;
71570;SDS011;59407;42.682;23.322;2022-12-26T09:21:13;56.15;;;34.00;;
71570;SDS011;59407;42.682;23.322;2022-12-26T09:23:40;53.80;;;34.05;;
71570;SDS011;59407;42.682;23.322;2022-12-26T09:26:07;53.50;;;34.33;;
71570;SDS011;59407;42.682;23.322;2022-12-26T09:28:36;55.33;;;31.43;;
71570;SDS011;59407;42.682;23.322;2022-12-26T09:31:03;57.63;;;33.22;;
71570;SDS011;59407;42.682;23.322;2022-12-26T09:33:30;59.53;;;33.40;;
71570;SDS011;59407;42.682;23.322;2022-12-26T09:35:57;54.90;;;31.67;;
71570;SDS011;59407;42.682;23.322;2022-12-26T09:38:23;55.92;;;32.10;;
71570;SDS011;59407;42.682;23.322;2022-12-26T09:47:06;45.63;;;29.73;;
71570;SDS011;59407;42.682;23.322;2022-12-26T09:49:57;45.58;;;29.17;;
71570;SDS011;59407;42.682;23.322;2022-12-26T09:52:52;48.28;;;28.90;;
71570;SDS011;59407;42.682;23.322;2022-12-26T09:58:33;47.13;;;27.73;;
71570;SDS011;59407;42.682;23.322;2022-12-26T10:01:13;50.00;;;28.05;;
71570;SDS011;59407;42.682;23.322;2022-12-26T10:03:45;48.80;;;27.60;;
71570;SDS011;59407;42.682;23.322;2022-12-26T10:06:19;48.40;;;30.08;;
71570;SDS011;59407;42.682;23.322;2022-12-26T10:11:51;43.83;;;24.45;;
71570;SDS011;59407;42.682;23.322;2022-12-26T10:22:47;36.33;;;23.00;;
71570;SDS011;59407;42.682;23.322;2022-12-26T10:25:25;32.45;;;20.45;;
71570;SDS011;59407;42.682;23.322;2022-12-26T10:27:57;31.55;;;19.95;;
71570;SDS011;59407;42.682;23.322;2022-12-26T10:30:25;31.52;;;18.80;;
71570;SDS011;59407;42.682;23.322;2022-12-26T10:32:56;29.53;;;17.43;;
71570;SDS011;59407;42.682;23.322;2022-12-26T10:35:36;34.22;;;18.95;;
71570;SDS011;59407;42.682;23.322;2022-12-26T10:40:51;36.50;;;20.25;;
71570;SDS011;59407;42.682;23.322;2022-12-26T10:43:29;34.03;;;21.20;;
71570;SDS011;59407;42.682;23.322;2022-12-26T10:48:30;35.08;;;21.45;;
71570;SDS011;59407;42.682;23.322;2022-12-26T10:50:56;35.10;;;21.53;;
71570;SDS011;59407;42.682;23.322;2022-12-26T10:53:21;34.33;;;20.25;;
71570;SDS011;59407;42.682;23.322;2022-12-26T10:55:47;33.83;;;21.60;;
71570;SDS011;59407;42.682;23.322;2022-12-26T10:58:17;32.38;;;19.15;;
71570;SDS011;59407;42.682;23.322;2022-12-26T11:00:47;27.03;;;17.23;;
71570;SDS011;59407;42.682;23.322;2022-12-26T11:03:16;25.58;;;16.38;;
71570;SDS011;59407;42.682;23.322;2022-12-26T11:05:45;24.13;;;14.73;;
71570;SDS011;59407;42.682;23.322;2022-12-26T11:08:17;20.57;;;13.10;;
71570;SDS011;59407;42.682;23.322;2022-12-26T11:11:03;20.75;;;11.60;;
71570;SDS011;59407;42.682;23.322;2022-12-26T11:13:30;18.42;;;11.50;;
71570;SDS011;59407;42.682;23.322;2022-12-26T11:16:00;17.23;;;11.30;;
71570;SDS011;59407;42.682;23.322;2022-12-26T11:21:18;23.38;;;12.30;;
71570;SDS011;59407;42.682;23.322;2022-12-26T11:23:50;20.02;;;11.95;;
71570;SDS011;59407;42.682;23.322;2022-12-26T11:26:35;22.50;;;13.55;;
71570;SDS011;59407;42.682;23.322;2022-12-26T11:29:05;19.47;;;11.40;;
71570;SDS011;59407;42.682;23.322;2022-12-26T11:31:40;20.00;;;12.13;;
71570;SDS011;59407;42.682;23.322;2022-12-26T11:37:03;24.40;;;15.27;;
71570;SDS011;59407;42.682;23.322;2022-12-26T11:39:30;22.65;;;14.18;;
71570;SDS011;59407;42.682;23.322;2022-12-26T11:41:58;20.80;;;13.83;;
71570;SDS011;59407;42.682;23.322;2022-12-26T11:44:25;20.33;;;13.20;;
71570;SDS011;59407;42.682;23.322;2022-12-26T11:46:59;22.10;;;13.47;;
71570;SDS011;59407;42.682;23.322;2022-12-26T11:49:33;20.40;;;12.35;;
71570;SDS011;59407;42.682;23.322;2022-12-26T11:55:01;15.75;;;10.05;;
71570;SDS011;59407;42.682;23.322;2022-12-26T11:57:45;19.95;;;11.18;;
71570;SDS011;59407;42.682;23.322;2022-12-26T12:00:22;14.83;;;9.83;;
71570;SDS011;59407;42.682;23.322;2022-12-26T12:02:48;15.35;;;10.57;;
71570;SDS011;59407;42.682;23.322;2022-12-26T12:05:15;16.60;;;10.90;;
71570;SDS011;59407;42.682;23.322;2022-12-26T12:10:35;19.77;;;11.93;;
71570;SDS011;59407;42.682;23.322;2022-12-26T12:13:12;21.73;;;12.93;;
71570;SDS011;59407;42.682;23.322;2022-12-26T12:26:09;20.92;;;12.65;;
71570;SDS011;59407;42.682;23.322;2022-12-26T12:40:01;19.92;;;11.60;;
71570;SDS011;59407;42.682;23.322;2022-12-26T12:42:42;19.25;;;10.90;;
71570;SDS011;59407;42.682;23.322;2022-12-26T12:45:24;16.10;;;10.60;;
71570;SDS011;59407;42.682;23.322;2022-12-26T12:50:34;17.50;;;10.53;;
71570;SDS011;59407;42.682;23.322;2022-12-26T12:56:27;16.20;;;9.63;;
71570;SDS011;59407;42.682;23.322;2022-12-26T12:59:15;23.85;;;11.90;;
71570;SDS011;59407;42.682;23.322;2022-12-26T13:01:49;17.88;;;9.57;;
71570;SDS011;59407;42.682;23.322;2022-12-26T13:04:22;13.13;;;8.23;;
71570;SDS011;59407;42.682;23.322;2022-12-26T13:06:52;17.55;;;9.40;;
71570;SDS011;59407;42.682;23.322;2022-12-26T13:09:36;16.52;;;9.40;;
71570;SDS011;59407;42.682;23.322;2022-12-26T13:12:13;13.85;;;8.57;;
71570;SDS011;59407;42.682;23.322;2022-12-26T13:14:43;14.10;;;7.85;;
71570;SDS011;59407;42.682;23.322;2022-12-26T13:19:46;16.33;;;9.13;;
71570;SDS011;59407;42.682;23.322;2022-12-26T13:22:19;17.13;;;9.63;;
71570;SDS011;59407;42.682;23.322;2022-12-26T13:24:57;12.90;;;7.75;;
71570;SDS011;59407;42.682;23.322;2022-12-26T13:27:31;14.45;;;7.47;;
71570;SDS011;59407;42.682;23.322;2022-12-26T13:30:00;13.47;;;7.63;;
71570;SDS011;59407;42.682;23.322;2022-12-26T13:32:31;13.48;;;7.88;;
71570;SDS011;59407;42.682;23.322;2022-12-26T13:34:58;21.48;;;8.95;;
71570;SDS011;59407;42.682;23.322;2022-12-26T13:39:57;16.73;;;10.27;;
71570;SDS011;59407;42.682;23.322;2022-12-26T13:42:33;14.30;;;8.00;;
71570;SDS011;59407;42.682;23.322;2022-12-26T13:48:00;13.30;;;6.53;;
71570;SDS011;59407;42.682;23.322;2022-12-26T13:55:49;12.53;;;6.70;;
71570;SDS011;59407;42.682;23.322;2022-12-26T14:00:46;18.48;;;9.25;;
71570;SDS011;59407;42.682;23.322;2022-12-26T14:10:47;14.33;;;6.30;;
71570;SDS011;59407;42.682;23.322;2022-12-26T14:13:48;12.70;;;6.25;;
71570;SDS011;59407;42.682;23.322;2022-12-26T14:16:18;13.60;;;6.85;;
71570;SDS011;59407;42.682;23.322;2022-12-26T14:23:52;12.43;;;6.03;;
71570;SDS011;59407;42.682;23.322;2022-12-26T14:34:41;10.75;;;5.20;;
71570;SDS011;59407;42.682;23.322;2022-12-26T14:40:01;10.68;;;5.03;;
71570;SDS011;59407;42.682;23.322;2022-12-26T14:42:31;11.48;;;5.80;;
71570;SDS011;59407;42.682;23.322;2022-12-26T14:48:48;10.48;;;6.72;;
71570;SDS011;59407;42.682;23.322;2022-12-26T14:55:57;17.23;;;7.38;;
71570;SDS011;59407;42.682;23.322;2022-12-26T14:58:24;15.43;;;6.75;;
71570;SDS011;59407;42.682;23.322;2022-12-26T15:01:01;14.77;;;7.55;;
71570;SDS011;59407;42.682;23.322;2022-12-26T15:03:50;17.47;;;7.37;;
71570;SDS011;59407;42.682;23.322;2022-12-26T15:31:25;23.00;;;13.50;;
71570;SDS011;59407;42.682;23.322;2022-12-26T15:33:58;17.58;;;9.55;;
71570;SDS011;59407;42.682;23.322;2022-12-26T15:41:47;22.73;;;12.38;;
71570;SDS011;59407;42.682;23.322;2022-12-26T15:58:43;23.52;;;12.50;;
71570;SDS011;59407;42.682;23.322;2022-12-26T16:01:08;25.20;;;11.63;;
71570;SDS011;59407;42.682;23.322;2022-12-26T16:03:41;33.03;;;14.07;;
71570;SDS011;59407;42.682;23.322;2022-12-26T16:10:00;25.83;;;13.30;;
71570;SDS011;59407;42.682;23.322;2022-12-26T16:12:13;30.60;;;14.63;;
71570;SDS011;59407;42.682;23.322;2022-12-26T16:14:43;26.90;;;13.00;;
71570;SDS011;59407;42.682;23.322;2022-12-26T16:17:19;25.55;;;13.23;;
71570;SDS011;59407;42.682;23.322;2022-12-26T16:19:46;25.90;;;14.48;;
71570;SDS011;59407;42.682;23.322;2022-12-26T16:22:20;24.73;;;12.97;;
71570;SDS011;59407;42.682;23.322;2022-12-26T16:25:23;35.40;;;20.55;;
71570;SDS011;59407;42.682;23.322;2022-12-26T16:27:54;35.08;;;19.02;;
71570;SDS011;59407;42.682;23.322;2022-12-26T16:30:22;36.00;;;20.63;;
71570;SDS011;59407;42.682;23.322;2022-12-26T16:32:49;40.70;;;17.77;;
71570;SDS011;59407;42.682;23.322;2022-12-26T16:35:20;33.90;;;16.53;;
71570;SDS011;59407;42.682;23.322;2022-12-26T16:37:47;35.10;;;16.92;;
71570;SDS011;59407;42.682;23.322;2022-12-26T16:40:41;33.60;;;17.08;;
71570;SDS011;59407;42.682;23.322;2022-12-26T16:45:45;32.17;;;17.80;;
71570;SDS011;59407;42.682;23.322;2022-12-26T16:48:17;35.75;;;17.38;;
71570;SDS011;59407;42.682;23.322;2022-12-26T16:51:06;30.27;;;14.98;;
71570;SDS011;59407;42.682;23.322;2022-12-26T16:58:34;31.95;;;16.17;;
71570;SDS011;59407;42.682;23.322;2022-12-26T17:01:05;34.50;;;16.60;;
71570;SDS011;59407;42.682;23.322;2022-12-26T17:03:38;32.95;;;16.73;;
71570;SDS011;59407;42.682;23.322;2022-12-26T17:06:21;29.37;;;16.57;;
71570;SDS011;59407;42.682;23.322;2022-12-26T17:08:49;32.00;;;16.52;;
71570;SDS011;59407;42.682;23.322;2022-12-26T17:11:15;28.33;;;15.80;;
71570;SDS011;59407;42.682;23.322;2022-12-26T17:13:45;31.45;;;16.80;;
71570;SDS011;59407;42.682;23.322;2022-12-26T17:16:14;33.13;;;17.77;;
71570;SDS011;59407;42.682;23.322;2022-12-26T17:18:46;29.57;;;15.93;;
71570;SDS011;59407;42.682;23.322;2022-12-26T17:21:14;35.47;;;17.93;;
71570;SDS011;59407;42.682;23.322;2022-12-26T17:26:33;32.65;;;16.40;;
71570;SDS011;59407;42.682;23.322;2022-12-26T17:29:00;30.63;;;16.50;;
71570;SDS011;59407;42.682;23.322;2022-12-26T17:31:31;34.88;;;18.58;;
71570;SDS011;59407;42.682;23.322;2022-12-26T17:34:16;29.93;;;16.47;;
71570;SDS011;59407;42.682;23.322;2022-12-26T17:36:52;38.90;;;18.02;;
71570;SDS011;59407;42.682;23.322;2022-12-26T17:39:22;39.08;;;19.15;;
71570;SDS011;59407;42.682;23.322;2022-12-26T17:41:49;37.30;;;19.65;;
71570;SDS011;59407;42.682;23.322;2022-12-26T17:44:38;35.93;;;19.47;;
71570;SDS011;59407;42.682;23.322;2022-12-26T17:47:16;38.92;;;20.52;;
71570;SDS011;59407;42.682;23.322;2022-12-26T17:49:47;39.25;;;19.90;;
71570;SDS011;59407;42.682;23.322;2022-12-26T17:52:14;38.50;;;22.90;;
71570;SDS011;59407;42.682;23.322;2022-12-26T17:54:40;46.22;;;21.95;;
71570;SDS011;59407;42.682;23.322;2022-12-26T17:57:08;41.07;;;21.70;;
71570;SDS011;59407;42.682;23.322;2022-12-26T17:59:40;41.38;;;22.90;;
71570;SDS011;59407;42.682;23.322;2022-12-26T18:02:07;44.67;;;21.53;;
71570;SDS011;59407;42.682;23.322;2022-12-26T18:04:34;46.97;;;23.60;;
71570;SDS011;59407;42.682;23.322;2022-12-26T18:06:59;37.90;;;20.63;;
71570;SDS011;59407;42.682;23.322;2022-12-26T18:09:25;45.90;;;25.13;;
71570;SDS011;59407;42.682;23.322;2022-12-26T18:11:51;39.00;;;22.92;;
71570;SDS011;59407;42.682;23.322;2022-12-26T18:14:17;35.03;;;20.50;;
71570;SDS011;59407;42.682;23.322;2022-12-26T18:16:43;36.07;;;19.90;;
71570;SDS011;59407;42.682;23.322;2022-12-26T18:19:10;37.57;;;19.73;;